Latest Weather Observations for Armidale Airport

IDN60801

Issued at 4:12 pm EDT Tuesday 11 December 2018 (issued every 10 minutes, with the page automatically refreshed every 10 minutes)

About weather observations | Map of weather stations | Latest weather observations for NSW | Other Formats
Station Details ID: 056238 Name: ARMIDALE AIRPORT AWS Lat: -30.53 Lon: 151.62 Height: 1079.0 m
Data from the previous 72 hours. | See also: Recent months at Armidale Airport
Date/Time
EDT
Temp
°C
App
Temp
°C
Dew
Point
°C
Rel
Hum
%
Delta-T
°C
Wind Press
QNH
hPa
Press
MSL
hPa
Rain since
9am
mm
Dir  Spd
km/h
Gust
km/h
Spd
kts
Gust
kts
11/04:00pm 17.8 14.9 12.9 73 2.9 E 20 26 11 14 1019.8 1014.4 0.0
11/03:30pm 18.2 15.8 14.3 78 2.4 ESE 20 28 11 15 1020.1 1014.8 0.0
11/03:00pm 17.5 15.6 14.2 81 2.0 SE 17 24 9 13 1020.6 1015.2 0.0
11/02:30pm 18.1 16.1 14.0 77 2.5 SE 17 22 9 12 1020.9 1015.6 0.0
11/02:00pm 19.1 17.6 14.1 73 3.0 SE 15 20 8 11 1021.0 1015.7 0.0
11/01:30pm 19.7 17.5 13.2 66 3.9 ESE 17 20 9 11 1020.9 1015.6 0.0
11/01:00pm 20.8 18.4 11.4 55 5.5 E 15 20 8 11 1020.9 1015.6 0.0
11/12:30pm 21.5 18.3 11.2 52 6.0 E 19 26 10 14 1020.8 1015.5 0.0
11/12:00pm 21.6 18.4 11.3 52 6.0 ESE 19 26 10 14 1020.9 1015.6 0.0
11/11:30am 21.4 18.2 11.4 53 5.8 ESE 19 26 10 14 1021.0 1015.7 0.0
11/11:00am 21.9 18.7 11.9 53 5.9 ESE 20 30 11 16 1021.0 1015.7 0.0
11/10:30am 21.6 18.2 12.5 56 5.4 ESE 22 32 12 17 1020.8 1015.5 0.0
11/10:00am 21.0 17.8 11.9 56 5.3 ESE 20 28 11 15 1021.0 1015.7 0.0
11/09:30am 20.3 16.1 11.2 56 5.3 ENE 24 32 13 17 1021.0 1015.7 0.0
11/09:00am 19.9 16.8 12.2 61 4.5 E 20 26 11 14 1021.3 1015.9 0.0
11/08:30am 18.7 15.7 11.8 64 4.0 E 19 24 10 13 1021.4 1016.0 0.0
11/08:00am 17.6 15.6 12.7 73 2.9 ENE 15 22 8 12 1021.0 1015.7 0.0
11/07:30am 17.3 15.8 13.2 77 2.4 ENE 13 17 7 9 1020.6 1015.2 0.0
11/07:00am 16.0 15.6 13.1 83 1.7 ESE 7 9 4 5 1020.5 1015.1 0.0
11/06:30am 14.7 13.1 11.7 82 1.7 ENE 11 15 6 8 1020.0 1014.7 0.0
11/06:00am 14.2 12.5 12.6 90 0.9 NE 13 15 7 8 1019.4 1014.0 0.0
11/05:30am 14.7 14.0 13.1 90 0.9 ENE 9 11 5 6 1019.4 1014.0 0.0
11/05:00am 14.3 13.8 12.5 89 1.0 ENE 7 9 4 5 1019.4 1014.0 0.0
11/04:30am 14.2 13.7 12.1 87 1.2 ENE 6 9 3 5 1019.1 1013.8 0.0
11/04:00am 14.2 12.6 11.7 85 1.4 ENE 11 13 6 7 1019.0 1013.6 0.0
11/03:30am 15.3 14.4 12.6 84 1.6 E 9 11 5 6 1019.5 1014.1 0.0
11/03:00am 14.5 13.1 12.2 86 1.3 ENE 11 13 6 7 1019.4 1014.0 0.0
11/02:30am 15.9 14.4 13.0 83 1.7 ENE 13 15 7 8 1019.4 1014.0 0.0
11/02:00am 15.9 14.4 13.0 83 1.7 ENE 13 15 7 8 1019.7 1014.3 0.0
11/01:30am 16.3 14.9 13.4 83 1.7 ENE 13 17 7 9 1019.7 1014.3 0.0
11/01:00am 16.7 15.4 13.6 82 1.8 ENE 13 15 7 8 1020.4 1015.0 0.0
11/12:30am 17.2 16.7 13.9 81 2.0 E 9 11 5 6 1020.6 1015.2 0.0
11/12:00am 17.7 16.4 13.8 78 2.3 E 13 17 7 9 1020.7 1015.3 0.0
 
Date/Time
EDT
Temp
°C
App
Temp
°C
Dew
Point
°C
Rel
Hum
%
Delta-T
°C
Wind Press
QNH
hPa
Press
MSL
hPa
Rain since
9am
mm
Dir  Spd
km/h
Gust
km/h
Spd
kts
Gust
kts
10/11:30pm 17.9 15.6 14.0 78 2.3 ENE 19 22 10 12 1020.7 1015.3 0.0
10/11:00pm 18.6 17.1 14.1 75 2.7 E 15 20 8 11 1021.0 1015.7 0.0
10/10:30pm 18.7 16.5 14.4 76 2.6 E 19 22 10 12 1021.1 1015.8 0.0
10/10:00pm 19.1 16.8 14.6 75 2.7 ESE 20 28 11 15 1021.0 1015.7 0.0
10/09:30pm 19.3 17.2 15.2 77 2.5 ESE 20 30 11 16 1020.8 1015.5 0.0
10/09:00pm 19.8 18.2 15.0 74 3.0 E 17 28 9 15 1020.6 1015.2 0.0
10/08:30pm 20.8 18.4 15.4 71 3.4 ESE 22 32 12 17 1020.3 1014.9 0.0
10/08:00pm 21.4 19.1 14.6 65 4.2 E 20 28 11 15 1019.7 1014.3 0.0
10/07:30pm 22.3 19.5 14.4 61 4.9 ESE 22 35 12 19 1019.5 1014.1 0.0
10/07:00pm 23.8 20.4 13.6 52 6.2 ESE 24 35 13 19 1018.7 1013.3 0.0
10/06:30pm 24.8 21.2 13.0 47 7.2 ESE 24 35 13 19 1017.9 1012.5 0.0
10/06:00pm 25.4 21.7 11.6 42 8.2 ESE 22 32 12 17 1017.6 1012.2 0.0
10/05:30pm 26.8 22.4 10.5 36 9.6 SE 24 33 13 18 1017.3 1011.8 0.0
10/05:00pm 28.1 24.8 9.4 31 10.9 SSE 17 24 9 13 1016.9 1011.5 0.0
10/04:30pm 28.4 25.6 8.7 29 11.3 SW 13 20 7 11 1016.9 1011.5 0.0
10/04:00pm 29.2 27.0 9.3 29 11.6 W 11 19 6 10 1017.0 1011.6 0.0
10/03:30pm 28.1 26.2 8.9 30 11.1 W 9 19 5 10 1017.6 1012.2 0.0
10/03:00pm 27.9 25.5 8.7 30 11.0 SSW 11 20 6 11 1017.8 1012.4 0.0
10/02:30pm 28.2 25.3 9.5 31 10.9 WSW 15 20 8 11 1018.1 1012.7 0.0
10/02:00pm 27.9 26.5 9.7 32 10.6 WNW 7 11 4 6 1018.4 1013.0 0.0
10/01:30pm 27.9 25.0 9.7 32 10.6 SW 15 24 8 13 1018.7 1013.3 0.0
10/01:00pm 26.8 24.3 10.9 37 9.4 WSW 15 19 8 10 1019.0 1013.6 0.0
10/12:30pm 26.8 23.8 10.5 36 9.6 WSW 17 24 9 13 1019.3 1013.9 0.0
10/12:00pm 26.5 24.2 11.8 40 8.8 WSW 15 30 8 16 1019.6 1014.2 0.0
10/11:30am 26.0 24.5 13.2 45 7.8 W 13 26 7 14 1019.8 1014.4 0.0
10/11:00am 25.2 22.9 13.1 47 7.4 W 17 22 9 12 1019.8 1014.4 0.0
10/10:30am 24.0 21.1 12.3 48 7.0 WSW 19 26 10 14 1020.0 1014.7 0.0
10/10:00am 23.0 20.3 12.9 53 6.1 WSW 19 22 10 12 1020.1 1014.8 0.0
10/09:30am 22.7 20.3 12.6 53 6.0 W 17 24 9 13 1020.3 1014.9 0.0
10/09:00am 21.3 18.9 12.7 58 5.1 W 17 22 9 12 1020.1 1014.8 0.0
10/08:30am 20.3 17.9 12.5 61 4.6 W 17 22 9 12 1020.3 1014.9 0.0
10/08:00am 19.2 17.4 12.2 64 4.1 W 13 17 7 9 1020.0 1014.7 0.0
10/07:30am 17.8 16.0 10.9 64 3.9 W 11 13 6 7 1019.8 1014.4 0.0
10/07:00am 16.3 15.3 10.4 68 3.3 W 6 7 3 4 1019.7 1014.3 0.0
10/06:30am 14.5 12.9 10.3 76 2.3 W 9 11 5 6 1019.7 1014.3 0.0
10/06:00am 12.9 10.6 9.0 77 2.1 WNW 11 13 6 7 1019.5 1014.1 0.0
10/05:30am 12.2 9.7 8.3 77 2.0 NW 11 13 6 7 1019.4 1014.0 0.0
10/05:00am 12.2 10.3 9.2 82 1.6 WNW 9 9 5 5 1019.1 1013.8 0.0
10/04:30am 11.7 10.4 9.8 88 1.0 WNW 7 9 4 5 1019.0 1013.6 0.0
10/04:00am 11.5 9.7 9.4 87 1.1 W 9 9 5 5 1018.9 1013.5 0.0
10/03:30am 13.4 13.7 10.9 85 1.4 CALM 0 0 0 0 1018.7 1013.3 0.0
10/03:00am 13.6 14.0 11.3 86 1.3 CALM 0 0 0 0 1018.9 1013.5 0.0
10/02:30am 13.8 14.2 11.3 85 1.4 CALM 0 0 0 0 1019.0 1013.6 0.0
10/02:00am 13.0 11.9 10.7 86 1.3 W 7 9 4 5 1019.8 1014.4 0.0
10/01:30am 13.5 13.2 10.1 80 1.9 SE 2 11 1 6 1020.3 1014.9 0.0
10/01:00am 15.0 13.2 11.0 77 2.2 E 11 13 6 7 1020.4 1015.0 0.0
10/12:30am 15.7 13.6 11.1 74 2.6 E 13 17 7 9 1020.7 1015.3 0.0
10/12:00am 16.3 13.8 11.2 72 2.9 ENE 15 17 8 9 1020.9 1015.6 0.0
 
Date/Time
EDT
Temp
°C
App
Temp
°C
Dew
Point
°C
Rel
Hum
%
Delta-T
°C
Wind Press
QNH
hPa
Press
MSL
hPa
Rain since
9am
mm
Dir  Spd
km/h
Gust
km/h
Spd
kts
Gust
kts
09/11:30pm 16.8 14.6 10.9 68 3.3 E 13 17 7 9 1021.3 1015.9 0.0
09/11:00pm 17.8 14.4 11.1 65 3.8 ENE 20 24 11 13 1021.5 1016.1 0.0
09/10:30pm 18.1 14.9 11.2 64 4.0 ENE 19 20 10 11 1021.3 1015.9 0.0
09/10:00pm 18.5 15.9 10.6 60 4.5 NE 15 17 8 9 1021.1 1015.8 0.0
09/09:30pm 19.0 16.7 10.3 57 4.9 NE 13 17 7 9 1020.8 1015.5 0.0
09/09:00pm 20.2 16.8 10.6 54 5.5 ENE 19 20 10 11 1020.4 1015.0 0.0
09/08:30pm 21.3 17.9 11.3 53 5.8 ENE 20 28 11 15 1019.9 1014.6 0.0
09/08:00pm 22.5 18.8 11.6 50 6.4 E 22 30 12 16 1019.5 1014.1 0.0
09/07:30pm 23.7 20.3 11.1 45 7.4 ENE 20 28 11 15 1019.3 1013.9 0.0
09/07:00pm 25.0 21.0 10.5 40 8.5 ENE 22 32 12 17 1019.1 1013.8 0.0
09/06:30pm 25.7 21.9 11.1 40 8.6 E 22 30 12 16 1018.8 1013.4 0.0
09/06:00pm 26.4 22.0 8.8 33 10.0 ENE 22 30 12 16 1018.5 1013.1 0.0
09/05:30pm 27.3 22.9 7.2 28 11.2 E 20 30 11 16 1018.5 1013.1 0.0
09/05:00pm 28.0 23.8 5.6 24 12.2 SE 17 24 9 13 1018.7 1013.3 0.0
09/04:30pm 28.2 24.4 5.7 24 12.3 SE 15 24 8 13 1018.8 1013.4 0.0
09/04:00pm 28.0 24.0 5.0 23 12.4 E 15 24 8 13 1019.1 1013.8 0.0
09/03:30pm 28.3 24.5 3.9 21 13.0 SE 13 22 7 12 1019.4 1014.0 0.0
09/03:00pm 28.1 23.5 3.7 21 12.9 ESE 17 24 9 13 1019.8 1014.4 0.0
09/02:30pm 27.8 23.9 1.3 18 13.4 ENE 11 20 6 11 1020.1 1014.8 0.0
09/02:00pm 27.3 23.7 0.9 18 13.2 ESE 9 20 5 11 1020.4 1015.0 0.0
09/01:30pm 27.1 24.7 5.4 25 11.8 E 7 15 4 8 1020.6 1015.2 0.0
09/01:00pm 26.1 22.5 6.7 29 10.7 ENE 15 24 8 13 1020.9 1015.6 0.0
09/12:30pm 25.7 22.2 7.3 31 10.2 ESE 15 26 8 14 1021.4 1016.0 0.0
09/12:00pm 25.3 21.3 8.3 34 9.6 E 19 24 10 13 1021.6 1016.3 0.0
09/11:30am 25.0 22.1 8.1 34 9.5 SE 13 24 7 13 1021.7 1016.4 0.0
09/11:00am 24.5 23.2 11.1 43 7.9 SE 9 19 5 10 1021.8 1016.5 0.0
09/10:30am 23.4 21.2 10.8 45 7.3 SE 13 20 7 11 1022.1 1016.8 0.0
09/10:00am 22.7 21.1 11.7 49 6.5 S 11 17 6 9 1022.1 1016.8 0.0
09/09:30am 21.7 19.7 10.2 48 6.6 SSW 11 17 6 9 1022.4 1017.0 0.0
09/09:00am 21.0 19.1 10.5 51 6.0 SE 11 15 6 8 1022.4 1017.0 0.0
09/08:30am 19.4 18.1 10.1 55 5.3 SW 7 11 4 6 1022.2 1016.9 0.0
09/08:00am 17.3 16.5 10.9 66 3.6 SE 6 7 3 4 1022.2 1016.9 0.0
09/07:30am 14.5 12.5 10.3 76 2.3 ENE 11 15 6 8 1022.2 1016.9 0.0
09/07:00am 13.0 12.1 11.4 90 0.9 ENE 7 11 4 6 1022.0 1016.7 0.0
09/06:30am 10.4 9.1 9.8 96 0.3 NE 7 9 4 5 1021.8 1016.5 0.0
09/06:00am 9.4 7.8 8.8 96 0.3 ENE 7 13 4 7 1021.6 1016.3 0.0
09/05:30am 9.3 7.9 8.8 97 0.3 E 6 9 3 5 1021.3 1015.9 0.0
09/05:00am 9.4 7.9 8.3 93 0.6 SSE 6 7 3 4 1021.3 1015.9 0.0
09/04:30am 9.9 9.2 8.7 92 0.6 E 2 6 1 3 1021.1 1015.8 0.0
09/04:00am 10.9 8.9 10.0 94 0.5 E 11 15 6 8 1020.9 1015.6 0.0
09/03:30am 11.2 8.8 10.1 93 0.6 E 13 13 7 7 1021.3 1015.9 0.0
09/03:00am 11.6 8.0 10.7 94 0.5 ENE 20 20 11 11 1021.6 1016.3 0.0
09/02:30am 11.9 9.7 10.8 93 0.6 E 13 17 7 9 1022.0 1016.7 0.0
09/02:00am 12.3 10.2 11.0 92 0.7 E 13 15 7 8 1022.6 1017.3 0.0
09/01:30am 12.3 10.1 10.9 91 0.8 ENE 13 17 7 9 1022.9 1017.6 0.0
09/01:00am 12.9 9.5 11.3 90 0.9 ENE 20 26 11 14 1023.1 1017.8 0.0
09/12:30am 13.1 9.0 11.3 89 1.0 ENE 24 30 13 16 1023.2 1017.9 0.0
09/12:00am 13.5 9.8 11.6 88 1.1 ENE 22 26 12 14 1023.5 1018.2 0.0
 
Date/Time
EDT
Temp
°C
App
Temp
°C
Dew
Point
°C
Rel
Hum
%
Delta-T
°C
Wind Press
QNH
hPa
Press
MSL
hPa
Rain since
9am
mm
Dir  Spd
km/h
Gust
km/h
Spd
kts
Gust
kts
08/11:30pm 13.6 10.3 11.5 87 1.2 ENE 20 24 11 13 1023.8 1018.5 0.0
08/11:00pm 14.2 11.1 11.7 85 1.4 ENE 19 24 10 13 1024.0 1018.7 0.0
08/10:30pm 14.7 12.0 11.7 82 1.7 ENE 17 19 9 10 1024.1 1018.9 0.0
08/10:00pm 15.4 12.1 11.6 78 2.2 NE 20 24 11 13 1023.8 1018.5 0.0
08/09:30pm 16.3 12.2 11.5 73 2.7 NE 24 30 13 16 1023.7 1018.4 0.0
08/09:00pm 17.6 13.5 11.6 68 3.4 ENE 24 32 13 17 1023.2 1017.9 0.0
08/08:30pm 18.9 15.2 12.6 67 3.7 ENE 24 30 13 16 1022.9 1017.6 0.0
08/08:00pm 19.8 16.5 11.6 59 4.8 ENE 20 26 11 14 1022.7 1017.4 0.0
08/07:30pm 21.1 17.7 11.2 53 5.8 E 20 26 11 14 1022.5 1017.2 0.0
08/07:00pm 22.8 20.2 10.6 46 7.1 E 15 30 8 16 1022.0 1016.7 0.0
08/06:30pm 24.4 21.0 5.7 30 10.0 E 13 19 7 10 1021.6 1016.3 0.0
08/06:00pm 24.9 20.8 6.1 30 10.2 ENE 17 22 9 12 1021.3 1015.9 0.0
08/05:30pm 24.9 22.5 5.2 28 10.5 N 7 15 4 8 1021.3 1015.9 0.0
08/05:00pm 24.9 22.4 6.6 31 10.0 NE 9 17 5 9 1021.3 1015.9 0.0
08/04:30pm 25.0 22.2 8.5 35 9.3 ENE 13 22 7 12 1021.4 1016.0 0.0

Other Formats:

Comma delimited format used in spreadsheet applications
http://www.bom.gov.au/fwo/IDN60801/IDN60801.95773.axf

JavaScript Object Notation format (JSON) in row-major order
http://www.bom.gov.au/fwo/IDN60801/IDN60801.95773.json